createdAt,value
2019-02-20T00:01:49.966Z,15.23
2019-02-20T00:04:22.065Z,13.27
2019-02-20T00:06:54.157Z,14.10
2019-02-20T00:09:26.227Z,12.60
2019-02-20T00:11:58.401Z,12.23
2019-02-20T00:14:30.392Z,11.70
2019-02-20T00:17:02.403Z,13.73
2019-02-20T00:19:34.471Z,15.23
2019-02-20T00:22:06.584Z,14.73
2019-02-20T00:24:38.678Z,12.57
2019-02-20T00:27:10.754Z,14.37
2019-02-20T00:29:42.839Z,14.20
2019-02-20T00:32:14.848Z,14.67
2019-02-20T00:34:46.918Z,13.97
2019-02-20T00:37:18.919Z,13.03
2019-02-20T00:39:50.999Z,12.40
2019-02-20T00:42:23.007Z,13.63
2019-02-20T00:45:32.000Z,15.23
2019-02-20T00:48:32.363Z,14.07
2019-02-20T00:51:12.202Z,13.80
2019-02-20T00:53:56.263Z,14.10
2019-02-20T00:56:28.348Z,12.63
2019-02-20T00:59:00.377Z,13.83
2019-02-20T01:01:32.588Z,15.93
2019-02-20T01:04:05.179Z,13.80
2019-02-20T01:06:37.202Z,13.97
2019-02-20T01:09:10.315Z,15.60
2019-02-20T01:11:42.331Z,14.73
2019-02-20T01:14:14.406Z,13.20
2019-02-20T01:16:46.417Z,11.83
2019-02-20T01:19:18.696Z,10.40
2019-02-20T01:21:50.787Z,12.17
2019-02-20T01:24:22.850Z,13.83
2019-02-20T01:26:54.864Z,13.00
2019-02-20T01:29:27.033Z,11.63
2019-02-20T01:31:59.116Z,11.03
2019-02-20T01:34:31.192Z,11.60
2019-02-20T01:37:03.186Z,11.20
2019-02-20T01:39:35.249Z,12.53
2019-02-20T01:42:07.263Z,12.67
2019-02-20T01:44:39.281Z,13.93
2019-02-20T01:47:11.283Z,13.20
2019-02-20T01:49:43.347Z,10.83
2019-02-20T01:52:15.229Z,9.13
2019-02-20T01:54:47.161Z,9.97
2019-02-20T01:57:19.215Z,12.90
2019-02-20T01:59:51.251Z,10.10
2019-02-20T02:02:23.338Z,12.50
2019-02-20T02:04:55.348Z,13.57
2019-02-20T02:07:27.356Z,13.30
2019-02-20T02:09:59.362Z,12.90
2019-02-20T02:12:32.931Z,12.23
2019-02-20T02:15:05.331Z,13.43
2019-02-20T02:17:37.338Z,15.20
2019-02-20T02:20:10.168Z,12.27
2019-02-20T02:22:42.172Z,11.90
2019-02-20T02:25:14.258Z,12.90
2019-02-20T02:27:46.282Z,12.63
2019-02-20T02:30:18.389Z,12.80
2019-02-20T02:32:50.467Z,13.40
2019-02-20T02:35:22.470Z,11.90
2019-02-20T02:37:54.493Z,12.60
2019-02-20T02:40:26.506Z,10.87
2019-02-20T02:42:58.583Z,9.87
2019-02-20T02:45:30.679Z,11.23
2019-02-20T02:48:02.695Z,11.63
2019-02-20T02:50:34.776Z,12.43
2019-02-20T02:53:06.783Z,11.77
2019-02-20T02:55:38.878Z,13.20
2019-02-20T02:58:10.954Z,12.37
2019-02-20T03:00:43.009Z,12.03
2019-02-20T03:03:15.082Z,13.17
2019-02-20T03:05:47.152Z,13.60
2019-02-20T03:08:19.221Z,13.73
2019-02-20T03:10:51.215Z,13.67
2019-02-20T03:13:23.223Z,14.00
2019-02-20T03:15:55.218Z,13.70
2019-02-20T03:18:27.237Z,13.23
2019-02-20T03:20:59.229Z,10.67
2019-02-20T03:23:39.814Z,10.97
2019-02-20T03:26:04.974Z,10.40
2019-02-20T03:28:37.054Z,10.00
2019-02-20T03:31:09.042Z,13.87
2019-02-20T03:33:41.110Z,12.63
2019-02-20T03:36:13.178Z,9.90
2019-02-20T03:38:45.252Z,11.50
2019-02-20T03:41:17.250Z,12.50
2019-02-20T03:43:49.338Z,13.37
2019-02-20T03:46:21.347Z,11.93
2019-02-20T03:48:53.428Z,9.43
2019-02-20T03:51:25.428Z,12.23
2019-02-20T03:53:57.529Z,12.47
2019-02-20T03:56:29.507Z,9.87
2019-02-20T03:59:01.622Z,12.13
2019-02-20T04:01:33.822Z,14.63
2019-02-20T04:04:05.932Z,14.60
2019-02-20T04:06:37.944Z,11.70
2019-02-20T04:09:10.036Z,14.63
2019-02-20T04:11:42.034Z,14.43
2019-02-20T04:14:14.025Z,13.60
2019-02-20T04:16:46.339Z,13.33
2019-02-20T04:19:19.223Z,12.67
2019-02-20T04:21:51.220Z,14.87
2019-02-20T04:24:23.209Z,12.53
2019-02-20T04:26:55.474Z,14.10
2019-02-20T04:29:27.543Z,11.40
2019-02-20T04:31:59.619Z,10.63
2019-02-20T04:34:31.684Z,11.33
2019-02-20T04:37:03.754Z,10.73
2019-02-20T04:39:35.895Z,14.83
2019-02-20T04:42:07.903Z,12.60
2019-02-20T04:44:40.075Z,14.93
2019-02-20T04:47:12.125Z,14.53
2019-02-20T04:49:44.127Z,11.60
2019-02-20T04:52:16.143Z,13.00
2019-02-20T04:54:48.138Z,10.77
2019-02-20T04:57:20.134Z,11.20
2019-02-20T04:59:52.726Z,12.40
2019-02-20T05:02:24.801Z,13.73
2019-02-20T05:04:56.840Z,13.93
2019-02-20T05:07:28.901Z,15.00
2019-02-20T05:10:00.909Z,11.23
2019-02-20T05:12:32.974Z,10.67
2019-02-20T05:15:05.398Z,16.73
2019-02-20T05:17:37.461Z,16.20
2019-02-20T05:20:09.699Z,14.73
2019-02-20T05:22:41.680Z,15.03
2019-02-20T05:25:13.679Z,13.17
2019-02-20T05:27:45.748Z,17.30
2019-02-20T05:30:17.857Z,16.90
2019-02-20T05:32:49.857Z,15.90
2019-02-20T05:35:21.927Z,14.80
2019-02-20T05:37:53.917Z,15.53
2019-02-20T05:40:25.989Z,16.30
2019-02-20T05:42:58.054Z,14.67
2019-02-20T05:45:30.129Z,12.97
2019-02-20T05:48:02.124Z,11.37
2019-02-20T05:50:34.207Z,12.97
2019-02-20T05:53:06.281Z,12.13
2019-02-20T05:55:38.287Z,13.73
2019-02-20T05:58:10.376Z,11.77
2019-02-20T06:00:42.377Z,10.97
2019-02-20T06:03:14.435Z,13.73
2019-02-20T06:05:46.501Z,10.30
2019-02-20T06:08:18.498Z,11.60
2019-02-20T06:10:50.503Z,12.93
2019-02-20T06:13:22.581Z,15.30
2019-02-20T06:15:54.646Z,15.43
2019-02-20T06:18:26.653Z,15.40
2019-02-20T06:20:58.716Z,13.17
2019-02-20T06:23:30.730Z,14.03
2019-02-20T06:26:02.814Z,15.60
2019-02-20T06:28:34.874Z,16.10
2019-02-20T06:31:06.995Z,16.27
2019-02-20T06:33:39.078Z,17.77
2019-02-20T06:36:11.124Z,17.43
2019-02-20T06:38:43.120Z,16.70
2019-02-20T06:41:15.190Z,14.50
2019-02-20T06:43:48.113Z,16.73
2019-02-20T06:46:20.462Z,18.20
2019-02-20T06:48:52.485Z,18.00
2019-02-20T06:51:24.580Z,17.07
2019-02-20T06:53:56.571Z,17.93
2019-02-20T06:56:28.576Z,17.13
2019-02-20T06:59:00.755Z,16.73
2019-02-20T07:01:32.830Z,17.43
2019-02-20T07:04:04.869Z,11.10
2019-02-20T07:07:16.333Z,14.23
2019-02-20T07:11:02.287Z,17.87
2019-02-20T07:14:10.896Z,13.30
2019-02-20T07:17:47.843Z,18.07
2019-02-20T07:21:52.162Z,18.67
2019-02-20T07:25:12.295Z,19.03
2019-02-20T07:28:38.917Z,19.17
2019-02-20T07:31:10.871Z,15.97
2019-02-20T07:33:42.853Z,19.00
2019-02-20T07:36:14.876Z,18.60
2019-02-20T07:38:46.878Z,12.80
2019-02-20T07:41:18.847Z,20.43
2019-02-20T07:43:50.851Z,21.90
2019-02-20T07:46:22.888Z,17.93
2019-02-20T07:48:54.877Z,19.53
2019-02-20T07:51:26.841Z,15.00
2019-02-20T07:53:58.919Z,18.83
2019-02-20T07:56:30.882Z,13.33
2019-02-20T07:59:02.968Z,18.90
2019-02-20T08:01:35.032Z,15.80
2019-02-20T08:04:07.008Z,13.37
2019-02-20T08:06:38.955Z,19.00
2019-02-20T08:09:10.936Z,19.07
2019-02-20T08:11:42.970Z,17.97
2019-02-20T08:14:15.031Z,22.13
2019-02-20T08:16:52.381Z,15.47
2019-02-20T08:19:21.932Z,15.33
2019-02-20T08:21:54.131Z,19.00
2019-02-20T08:24:26.191Z,15.60
2019-02-20T08:26:58.220Z,13.93
2019-02-20T08:29:30.214Z,20.53
2019-02-20T08:32:02.253Z,17.23
2019-02-20T08:34:34.248Z,22.73
2019-02-20T08:37:06.221Z,19.97
2019-02-20T08:39:38.291Z,20.33
2019-02-20T08:42:10.248Z,17.57
2019-02-20T08:44:42.230Z,21.50
2019-02-20T08:47:14.187Z,16.60
2019-02-20T08:49:46.258Z,22.43
2019-02-20T08:52:18.224Z,20.77
2019-02-20T08:54:50.297Z,12.87
2019-02-20T08:57:22.340Z,19.10
2019-02-20T08:59:54.334Z,18.63
2019-02-20T09:02:26.334Z,15.67
2019-02-20T09:04:58.413Z,15.13
2019-02-20T09:07:30.376Z,13.00
2019-02-20T09:10:02.379Z,14.00
2019-02-20T09:12:34.461Z,14.13
2019-02-20T09:15:07.277Z,12.03
2019-02-20T09:17:39.372Z,14.00
2019-02-20T09:20:11.799Z,15.63
2019-02-20T09:22:43.822Z,15.03
2019-02-20T09:25:19.863Z,12.47
2019-02-20T09:27:49.567Z,13.13
2019-02-20T09:30:28.335Z,14.03
2019-02-20T09:32:55.331Z,12.53
2019-02-20T09:35:27.410Z,13.47
2019-02-20T09:37:59.409Z,13.53
2019-02-20T09:40:31.418Z,12.07
2019-02-20T09:43:03.489Z,13.30
2019-02-20T09:45:41.740Z,13.80
2019-02-20T09:48:09.183Z,12.47
2019-02-20T09:50:41.243Z,14.93
2019-02-20T09:53:13.238Z,10.83
2019-02-20T09:55:51.513Z,11.23
2019-02-20T09:58:18.877Z,9.97
2019-02-20T10:00:50.958Z,14.17
2019-02-20T10:03:23.126Z,14.97
2019-02-20T10:05:55.109Z,12.73
2019-02-20T10:08:27.097Z,11.30
2019-02-20T10:10:59.099Z,13.53
2019-02-20T10:13:31.104Z,13.63
2019-02-20T10:16:03.102Z,13.07
2019-02-20T10:18:35.177Z,13.03
2019-02-20T10:21:07.176Z,14.77
2019-02-20T10:23:39.180Z,13.13
2019-02-20T10:26:11.194Z,14.50
2019-02-20T10:28:43.241Z,14.10
2019-02-20T10:31:15.249Z,13.43
2019-02-20T10:33:47.321Z,9.50
2019-02-20T10:36:19.315Z,9.27
2019-02-20T10:38:51.319Z,13.87
2019-02-20T10:41:23.329Z,15.80
2019-02-20T10:43:55.340Z,10.77
2019-02-20T10:46:27.345Z,9.07
2019-02-20T10:48:59.378Z,13.90
2019-02-20T10:51:31.419Z,8.93
2019-02-20T10:54:03.421Z,13.40
2019-02-20T10:56:35.609Z,11.93
2019-02-20T10:59:07.706Z,11.37
2019-02-20T11:01:39.755Z,13.97
2019-02-20T11:04:11.762Z,11.53
2019-02-20T11:06:43.847Z,10.70
2019-02-20T11:09:15.840Z,9.97
2019-02-20T11:11:47.869Z,12.33
2019-02-20T11:14:19.930Z,8.53
2019-02-20T11:16:51.942Z,10.20
2019-02-20T11:19:23.920Z,10.37
2019-02-20T11:21:56.041Z,12.67
2019-02-20T11:24:28.018Z,11.70
2019-02-20T11:27:00.106Z,12.67
2019-02-20T11:29:32.151Z,9.67
2019-02-20T11:32:04.158Z,9.90
2019-02-20T11:34:36.199Z,7.97
2019-02-20T11:37:08.206Z,9.13
2019-02-20T11:39:40.188Z,10.20
2019-02-20T11:42:12.193Z,8.40
2019-02-20T11:44:44.156Z,5.57
2019-02-20T11:47:16.231Z,7.40
2019-02-20T11:49:48.269Z,6.83
2019-02-20T11:52:20.270Z,7.37
2019-02-20T11:54:52.575Z,8.07
2019-02-20T11:57:24.853Z,7.60
2019-02-20T11:59:57.530Z,7.63
2019-02-20T12:02:37.211Z,7.70
2019-02-20T12:05:03.380Z,7.07
2019-02-20T12:07:35.375Z,6.30
2019-02-20T12:10:08.065Z,12.93
2019-02-20T12:12:40.069Z,6.87
2019-02-20T12:15:12.486Z,6.63
2019-02-20T12:17:44.569Z,5.33
2019-02-20T12:20:16.902Z,5.17
2019-02-20T12:22:49.001Z,7.30
2019-02-20T12:25:21.035Z,7.17
2019-02-20T12:27:53.138Z,10.20
2019-02-20T12:30:25.123Z,10.17
2019-02-20T12:32:57.132Z,7.97
2019-02-20T12:35:29.179Z,8.63
2019-02-20T12:38:02.512Z,5.83
2019-02-20T12:40:34.641Z,4.33
2019-02-20T12:43:06.664Z,4.83
2019-02-20T12:45:38.615Z,6.93
2019-02-20T12:48:10.604Z,6.00
2019-02-20T12:50:42.573Z,6.27
2019-02-20T12:53:14.573Z,5.27
2019-02-20T12:55:46.536Z,4.80
2019-02-20T12:58:18.605Z,6.20
2019-02-20T13:00:50.755Z,5.53
2019-02-20T13:03:22.825Z,5.00
2019-02-20T13:05:54.904Z,4.97
2019-02-20T13:08:26.970Z,5.27
2019-02-20T13:10:58.920Z,4.90
2019-02-20T13:13:30.930Z,4.90
2019-02-20T13:16:09.487Z,6.87
2019-02-20T13:18:36.780Z,5.30
2019-02-20T13:21:10.815Z,6.30
2019-02-20T13:23:42.535Z,7.57
2019-02-20T13:26:14.533Z,5.17
2019-02-20T13:28:46.605Z,7.20
2019-02-20T13:31:18.596Z,6.10
2019-02-20T13:33:50.701Z,10.93
2019-02-20T13:36:22.798Z,6.90
2019-02-20T13:38:54.795Z,6.10
2019-02-20T13:41:26.960Z,6.17
2019-02-20T13:43:59.040Z,4.87
2019-02-20T13:46:31.116Z,8.20
2019-02-20T13:49:03.174Z,7.57
2019-02-20T13:51:35.443Z,10.97
2019-02-20T13:54:07.521Z,10.13
2019-02-20T13:56:39.609Z,11.67
2019-02-20T13:59:11.690Z,8.77
2019-02-20T14:01:45.587Z,9.37
2019-02-20T14:04:17.505Z,6.73
2019-02-20T14:06:49.589Z,8.03
2019-02-20T14:09:21.664Z,5.57
2019-02-20T14:11:53.736Z,6.17
2019-02-20T14:14:25.809Z,6.90
2019-02-20T14:16:58.081Z,8.87
2019-02-20T14:19:30.154Z,6.20
2019-02-20T14:22:02.216Z,5.23
2019-02-20T14:24:34.292Z,5.77
2019-02-20T14:27:10.699Z,7.30
2019-02-20T14:29:40.077Z,7.20
2019-02-20T14:32:12.162Z,5.60
2019-02-20T14:34:45.493Z,6.27
2019-02-20T14:37:17.587Z,5.57
2019-02-20T14:39:49.662Z,3.80
2019-02-20T14:42:21.916Z,3.67
2019-02-20T14:44:53.988Z,3.40
2019-02-20T14:47:26.054Z,3.27
2019-02-20T14:49:58.137Z,3.50
2019-02-20T14:52:30.203Z,3.73
2019-02-20T14:55:02.484Z,5.17
2019-02-20T14:57:34.545Z,6.80
2019-02-20T15:00:07.457Z,6.40
2019-02-20T15:02:39.562Z,4.37
2019-02-20T15:05:12.121Z,6.87
2019-02-20T15:07:44.200Z,7.60
2019-02-20T15:10:16.370Z,5.63
2019-02-20T15:12:48.431Z,4.23
2019-02-20T15:15:20.567Z,6.83
2019-02-20T15:17:52.628Z,3.90
2019-02-20T15:20:24.749Z,4.23
2019-02-20T15:22:58.391Z,3.40
2019-02-20T15:25:30.490Z,4.63
2019-02-20T15:28:02.555Z,3.43
2019-02-20T15:30:34.629Z,3.00
2019-02-20T15:33:07.271Z,3.23
2019-02-20T15:35:39.340Z,4.80
2019-02-20T15:38:11.403Z,3.70
2019-02-20T15:40:44.580Z,3.90
2019-02-20T15:43:16.670Z,4.93
2019-02-20T15:45:48.729Z,4.20
2019-02-20T15:48:23.239Z,5.47
2019-02-20T15:50:54.493Z,4.30
2019-02-20T15:53:26.569Z,8.03
2019-02-20T15:55:58.663Z,5.13
2019-02-20T15:58:30.831Z,5.17
2019-02-20T16:01:03.451Z,7.43
2019-02-20T16:03:35.562Z,13.70
2019-02-20T16:06:07.793Z,9.47
2019-02-20T16:08:39.868Z,6.00
2019-02-20T16:11:12.180Z,5.10
2019-02-20T16:13:44.284Z,5.63
2019-02-20T16:16:16.274Z,4.63
2019-02-20T16:18:48.196Z,3.60
2019-02-20T16:21:20.101Z,3.20
2019-02-20T16:23:52.018Z,5.63
2019-02-20T16:26:23.938Z,4.03
2019-02-20T16:28:55.848Z,3.57
2019-02-20T16:31:27.772Z,3.70
2019-02-20T16:33:59.699Z,2.90
2019-02-20T16:36:31.665Z,2.80
2019-02-20T16:39:05.317Z,3.03
2019-02-20T16:41:37.232Z,2.20
2019-02-20T16:44:10.144Z,1.93
2019-02-20T16:46:42.137Z,2.60
2019-02-20T16:49:14.044Z,2.97
2019-02-20T16:51:45.956Z,3.13
2019-02-20T16:54:17.866Z,3.60
2019-02-20T16:56:49.787Z,2.83
2019-02-20T16:59:21.719Z,4.90
2019-02-20T17:01:53.736Z,6.37
2019-02-20T17:04:25.755Z,5.67
2019-02-20T17:06:57.773Z,6.37
2019-02-20T17:09:29.917Z,6.50
2019-02-20T17:12:02.727Z,5.70
2019-02-20T17:14:36.525Z,5.30
2019-02-20T17:17:08.529Z,4.40
2019-02-20T17:19:40.416Z,3.60
2019-02-20T17:22:12.306Z,2.77
2019-02-20T17:24:44.492Z,2.60
2019-02-20T17:27:16.404Z,2.00
2019-02-20T17:29:48.316Z,2.57
2019-02-20T17:32:20.326Z,2.87
2019-02-20T17:34:52.245Z,6.03
2019-02-20T17:37:24.646Z,4.40
2019-02-20T17:39:56.546Z,6.30
2019-02-20T17:42:28.470Z,5.83
2019-02-20T17:45:00.380Z,5.83
2019-02-20T17:47:32.322Z,5.00
2019-02-20T17:50:09.883Z,4.40
2019-02-20T17:52:41.947Z,4.73
2019-02-20T17:55:14.311Z,7.23
2019-02-20T17:57:46.225Z,6.93
2019-02-20T18:00:20.222Z,5.17
2019-02-20T18:02:52.123Z,3.93
2019-02-20T18:05:24.213Z,4.03
2019-02-20T18:07:56.127Z,3.20
2019-02-20T18:10:28.069Z,3.60
2019-02-20T18:12:59.991Z,3.00
2019-02-20T18:15:31.908Z,2.43
2019-02-20T18:18:03.823Z,2.53
2019-02-20T18:20:35.726Z,3.00
2019-02-20T18:23:07.638Z,3.20
2019-02-20T18:25:39.546Z,3.23
2019-02-20T18:28:11.486Z,3.50
2019-02-20T18:30:43.432Z,4.83
2019-02-20T18:33:15.345Z,4.43
2019-02-20T18:35:47.232Z,4.13
2019-02-20T18:38:19.159Z,4.00
2019-02-20T18:40:51.065Z,4.33
2019-02-20T18:43:22.969Z,3.63
2019-02-20T18:45:54.879Z,5.57
2019-02-20T18:48:26.795Z,6.37
2019-02-20T18:50:58.710Z,7.03
2019-02-20T18:53:31.133Z,9.73
2019-02-20T18:56:04.063Z,7.43
2019-02-20T18:58:35.985Z,9.37
2019-02-20T19:01:07.980Z,8.13
2019-02-20T19:03:39.920Z,6.83
2019-02-20T19:06:11.884Z,7.23
2019-02-20T19:08:57.135Z,7.47
2019-02-20T19:11:54.569Z,7.63
2019-02-20T19:15:44.687Z,6.93
2019-02-20T19:19:15.198Z,4.33
2019-02-20T19:22:54.232Z,6.63
2019-02-20T19:26:43.510Z,6.67
2019-02-20T19:30:10.511Z,7.97
2019-02-20T19:33:17.024Z,12.67
2019-02-20T19:36:33.555Z,8.83
2019-02-20T19:39:53.306Z,8.07
2019-02-20T19:43:27.297Z,9.30
2019-02-20T19:46:47.603Z,7.50
2019-02-20T19:50:07.038Z,7.13
2019-02-20T19:53:32.538Z,5.80
2019-02-20T19:57:01.191Z,6.77
2019-02-20T20:00:41.546Z,6.77
2019-02-20T20:03:51.625Z,9.03
2019-02-20T20:07:21.603Z,10.17
2019-02-20T20:10:56.525Z,10.60
2019-02-20T20:14:18.297Z,9.67
2019-02-20T20:17:47.481Z,9.07
2019-02-20T20:21:51.912Z,8.30
2019-02-20T20:25:18.081Z,7.57
2019-02-20T20:28:31.472Z,6.50
2019-02-20T20:31:58.845Z,5.50
2019-02-20T20:35:21.781Z,6.57
2019-02-20T20:38:15.143Z,8.27
2019-02-20T20:41:46.960Z,7.23
2019-02-20T20:44:54.258Z,6.07
2019-02-20T20:48:29.947Z,5.60
2019-02-20T20:52:10.144Z,6.67
2019-02-20T20:55:31.263Z,6.93
2019-02-20T20:58:54.227Z,6.27
2019-02-20T21:02:12.547Z,6.60
2019-02-20T21:05:46.873Z,6.60
2019-02-20T21:09:22.153Z,6.63
2019-02-20T21:12:53.470Z,7.50
2019-02-20T21:15:48.318Z,6.23
2019-02-20T21:19:36.192Z,7.10
2019-02-20T21:23:12.144Z,7.07
2019-02-20T21:26:28.803Z,6.83
2019-02-20T21:30:02.060Z,7.90
2019-02-20T21:33:08.700Z,8.40
2019-02-20T21:36:34.948Z,8.23
2019-02-20T21:39:43.018Z,7.40
2019-02-20T21:43:25.694Z,9.03
2019-02-20T21:46:42.393Z,7.90
2019-02-20T21:49:39.479Z,7.73
2019-02-20T21:53:04.843Z,7.13
2019-02-20T21:56:25.187Z,6.87
2019-02-20T22:00:39.064Z,8.13
2019-02-20T22:04:07.364Z,7.00
2019-02-20T22:07:26.870Z,8.27
2019-02-20T22:11:15.616Z,7.80
2019-02-20T22:14:52.517Z,8.20
2019-02-20T22:18:17.476Z,6.53
2019-02-20T22:21:39.660Z,7.60
2019-02-20T22:24:52.795Z,7.80
2019-02-20T22:28:24.420Z,8.17
2019-02-20T22:31:50.051Z,7.20
2019-02-20T22:35:01.686Z,7.40
2019-02-20T22:38:25.944Z,6.43
2019-02-20T22:41:57.751Z,6.23
2019-02-20T22:45:58.872Z,6.40
2019-02-20T22:49:21.399Z,5.37
2019-02-20T22:52:29.938Z,5.43
2019-02-20T22:55:50.062Z,6.23
2019-02-20T22:59:09.867Z,7.00
2019-02-20T23:02:30.076Z,6.77
2019-02-20T23:06:12.481Z,8.07
2019-02-20T23:09:16.679Z,7.43
2019-02-20T23:12:11.545Z,9.00
2019-02-20T23:14:54.603Z,8.77
2019-02-20T23:17:27.240Z,9.33
2019-02-20T23:19:59.473Z,9.13
2019-02-20T23:22:31.384Z,9.53
2019-02-20T23:25:03.361Z,9.43
2019-02-20T23:27:35.285Z,8.17
2019-02-20T23:30:12.860Z,7.90
2019-02-20T23:32:44.143Z,7.47
2019-02-20T23:35:16.021Z,8.27
2019-02-20T23:37:47.941Z,9.43
2019-02-20T23:40:19.815Z,6.67
2019-02-20T23:42:51.722Z,9.30
2019-02-20T23:45:23.605Z,8.13
2019-02-20T23:47:55.516Z,9.43
2019-02-20T23:50:27.383Z,8.47
2019-02-20T23:52:59.309Z,7.30
2019-02-20T23:55:31.220Z,8.03
2019-02-20T23:58:03.140Z,8.37
